sensor_id;sensor_type;location;lat;lon;timestamp;P1;durP1;ratioP1;P2;durP2;ratioP2
75651;SDS011;64248;43.602;39.724;2022-10-18T00:01:08;6.38;;;3.15;;
75651;SDS011;64248;43.602;39.724;2022-10-18T00:03:35;7.18;;;2.88;;
75651;SDS011;64248;43.602;39.724;2022-10-18T00:06:02;5.95;;;2.70;;
75651;SDS011;64248;43.602;39.724;2022-10-18T00:08:29;6.85;;;2.75;;
75651;SDS011;64248;43.602;39.724;2022-10-18T00:10:55;4.53;;;2.28;;
75651;SDS011;64248;43.602;39.724;2022-10-18T00:13:21;5.93;;;2.80;;
75651;SDS011;64248;43.602;39.724;2022-10-18T00:15:49;10.07;;;2.90;;
75651;SDS011;64248;43.602;39.724;2022-10-18T00:18:16;6.43;;;2.97;;
75651;SDS011;64248;43.602;39.724;2022-10-18T00:20:42;6.03;;;2.88;;
75651;SDS011;64248;43.602;39.724;2022-10-18T00:23:08;7.63;;;2.70;;
75651;SDS011;64248;43.602;39.724;2022-10-18T00:25:34;8.02;;;2.85;;
75651;SDS011;64248;43.602;39.724;2022-10-18T00:28:00;5.80;;;3.22;;
75651;SDS011;64248;43.602;39.724;2022-10-18T00:30:26;5.07;;;2.30;;
75651;SDS011;64248;43.602;39.724;2022-10-18T00:32:53;5.13;;;2.75;;
75651;SDS011;64248;43.602;39.724;2022-10-18T00:35:19;8.48;;;2.53;;
75651;SDS011;64248;43.602;39.724;2022-10-18T00:37:44;8.80;;;3.08;;
75651;SDS011;64248;43.602;39.724;2022-10-18T00:40:10;5.13;;;2.30;;
75651;SDS011;64248;43.602;39.724;2022-10-18T00:42:36;6.45;;;3.03;;
75651;SDS011;64248;43.602;39.724;2022-10-18T00:47:32;4.78;;;2.85;;
75651;SDS011;64248;43.602;39.724;2022-10-18T00:50:00;9.32;;;2.50;;
75651;SDS011;64248;43.602;39.724;2022-10-18T00:52:33;7.28;;;3.00;;
75651;SDS011;64248;43.602;39.724;2022-10-18T00:55:02;6.82;;;2.60;;
75651;SDS011;64248;43.602;39.724;2022-10-18T00:57:30;6.65;;;3.38;;
75651;SDS011;64248;43.602;39.724;2022-10-18T00:59:57;5.40;;;2.33;;
75651;SDS011;64248;43.602;39.724;2022-10-18T01:02:23;6.55;;;2.65;;
75651;SDS011;64248;43.602;39.724;2022-10-18T01:04:50;6.93;;;2.97;;
75651;SDS011;64248;43.602;39.724;2022-10-18T01:10:06;4.97;;;2.15;;
75651;SDS011;64248;43.602;39.724;2022-10-18T01:12:45;5.53;;;2.47;;
75651;SDS011;64248;43.602;39.724;2022-10-18T01:15:20;5.88;;;2.35;;
75651;SDS011;64248;43.602;39.724;2022-10-18T01:18:02;7.95;;;2.60;;
75651;SDS011;64248;43.602;39.724;2022-10-18T01:20:40;9.30;;;2.75;;
75651;SDS011;64248;43.602;39.724;2022-10-18T01:23:40;6.20;;;2.63;;
75651;SDS011;64248;43.602;39.724;2022-10-18T01:32:18;6.47;;;3.03;;
75651;SDS011;64248;43.602;39.724;2022-10-18T01:35:16;5.00;;;2.58;;
75651;SDS011;64248;43.602;39.724;2022-10-18T01:37:46;8.70;;;3.40;;
75651;SDS011;64248;43.602;39.724;2022-10-18T01:40:15;5.78;;;2.70;;
75651;SDS011;64248;43.602;39.724;2022-10-18T01:42:45;8.27;;;2.58;;
75651;SDS011;64248;43.602;39.724;2022-10-18T01:45:13;6.45;;;3.03;;
75651;SDS011;64248;43.602;39.724;2022-10-18T01:47:43;6.43;;;2.83;;
75651;SDS011;64248;43.602;39.724;2022-10-18T01:52:49;6.53;;;2.60;;
75651;SDS011;64248;43.602;39.724;2022-10-18T01:55:16;5.60;;;2.75;;
75651;SDS011;64248;43.602;39.724;2022-10-18T01:58:04;8.63;;;3.92;;
75651;SDS011;64248;43.602;39.724;2022-10-18T02:00:35;6.88;;;2.90;;
75651;SDS011;64248;43.602;39.724;2022-10-18T02:03:21;6.93;;;2.45;;
75651;SDS011;64248;43.602;39.724;2022-10-18T02:11:14;5.18;;;3.08;;
75651;SDS011;64248;43.602;39.724;2022-10-18T02:13:43;5.90;;;2.22;;
75651;SDS011;64248;43.602;39.724;2022-10-18T02:16:35;5.28;;;2.47;;
75651;SDS011;64248;43.602;39.724;2022-10-18T02:19:22;7.53;;;3.20;;
75651;SDS011;64248;43.602;39.724;2022-10-18T02:21:57;7.63;;;2.53;;
75651;SDS011;64248;43.602;39.724;2022-10-18T02:24:26;4.82;;;2.40;;
75651;SDS011;64248;43.602;39.724;2022-10-18T02:26:57;6.82;;;2.95;;
75651;SDS011;64248;43.602;39.724;2022-10-18T02:29:23;7.85;;;2.95;;
75651;SDS011;64248;43.602;39.724;2022-10-18T02:31:50;6.68;;;2.50;;
75651;SDS011;64248;43.602;39.724;2022-10-18T02:34:28;6.85;;;3.13;;
75651;SDS011;64248;43.602;39.724;2022-10-18T02:36:59;6.72;;;2.90;;
75651;SDS011;64248;43.602;39.724;2022-10-18T02:39:31;9.95;;;2.83;;
75651;SDS011;64248;43.602;39.724;2022-10-18T02:41:59;4.65;;;2.53;;
75651;SDS011;64248;43.602;39.724;2022-10-18T02:44:25;8.82;;;2.88;;
75651;SDS011;64248;43.602;39.724;2022-10-18T02:46:51;5.95;;;2.80;;
75651;SDS011;64248;43.602;39.724;2022-10-18T02:49:17;7.40;;;2.88;;
75651;SDS011;64248;43.602;39.724;2022-10-18T02:51:43;6.82;;;2.55;;
75651;SDS011;64248;43.602;39.724;2022-10-18T02:54:09;10.48;;;2.47;;
75651;SDS011;64248;43.602;39.724;2022-10-18T02:56:35;6.80;;;3.38;;
75651;SDS011;64248;43.602;39.724;2022-10-18T02:59:01;7.65;;;2.63;;
75651;SDS011;64248;43.602;39.724;2022-10-18T03:01:29;5.50;;;2.13;;
75651;SDS011;64248;43.602;39.724;2022-10-18T03:03:57;6.45;;;2.78;;
75651;SDS011;64248;43.602;39.724;2022-10-18T03:06:23;8.23;;;2.75;;
75651;SDS011;64248;43.602;39.724;2022-10-18T03:08:49;6.20;;;2.42;;
75651;SDS011;64248;43.602;39.724;2022-10-18T03:11:15;7.63;;;2.83;;
75651;SDS011;64248;43.602;39.724;2022-10-18T03:13:41;5.30;;;2.33;;
75651;SDS011;64248;43.602;39.724;2022-10-18T03:16:07;5.72;;;3.75;;
75651;SDS011;64248;43.602;39.724;2022-10-18T03:18:33;7.45;;;3.13;;
75651;SDS011;64248;43.602;39.724;2022-10-18T03:21:02;5.75;;;3.08;;
75651;SDS011;64248;43.602;39.724;2022-10-18T03:23:29;8.60;;;2.67;;
75651;SDS011;64248;43.602;39.724;2022-10-18T03:25:55;7.72;;;2.85;;
75651;SDS011;64248;43.602;39.724;2022-10-18T03:28:21;7.40;;;2.72;;
75651;SDS011;64248;43.602;39.724;2022-10-18T03:30:47;4.82;;;2.38;;
75651;SDS011;64248;43.602;39.724;2022-10-18T03:33:13;5.00;;;2.58;;
75651;SDS011;64248;43.602;39.724;2022-10-18T03:35:39;4.50;;;2.42;;
75651;SDS011;64248;43.602;39.724;2022-10-18T03:38:05;6.28;;;2.97;;
75651;SDS011;64248;43.602;39.724;2022-10-18T03:40:31;5.22;;;2.50;;
75651;SDS011;64248;43.602;39.724;2022-10-18T03:42:57;7.00;;;2.42;;
75651;SDS011;64248;43.602;39.724;2022-10-18T03:45:24;5.20;;;2.92;;
75651;SDS011;64248;43.602;39.724;2022-10-18T03:47:50;5.03;;;2.78;;
75651;SDS011;64248;43.602;39.724;2022-10-18T03:50:16;6.18;;;2.70;;
75651;SDS011;64248;43.602;39.724;2022-10-18T03:52:42;9.65;;;3.53;;
75651;SDS011;64248;43.602;39.724;2022-10-18T03:55:08;8.23;;;2.13;;
75651;SDS011;64248;43.602;39.724;2022-10-18T03:57:34;4.75;;;2.78;;
75651;SDS011;64248;43.602;39.724;2022-10-18T04:00:00;5.95;;;2.38;;
75651;SDS011;64248;43.602;39.724;2022-10-18T04:02:26;6.40;;;2.70;;
75651;SDS011;64248;43.602;39.724;2022-10-18T04:04:52;7.78;;;2.78;;
75651;SDS011;64248;43.602;39.724;2022-10-18T04:07:18;7.22;;;4.75;;
75651;SDS011;64248;43.602;39.724;2022-10-18T04:09:44;6.95;;;3.25;;
75651;SDS011;64248;43.602;39.724;2022-10-18T04:12:10;5.72;;;2.72;;
75651;SDS011;64248;43.602;39.724;2022-10-18T04:14:36;6.82;;;3.22;;
75651;SDS011;64248;43.602;39.724;2022-10-18T04:17:02;5.78;;;2.88;;
75651;SDS011;64248;43.602;39.724;2022-10-18T04:19:29;10.57;;;3.17;;
75651;SDS011;64248;43.602;39.724;2022-10-18T04:21:55;7.50;;;2.88;;
75651;SDS011;64248;43.602;39.724;2022-10-18T04:24:21;5.93;;;3.00;;
75651;SDS011;64248;43.602;39.724;2022-10-18T04:26:47;5.63;;;2.78;;
75651;SDS011;64248;43.602;39.724;2022-10-18T04:29:12;5.75;;;2.60;;
75651;SDS011;64248;43.602;39.724;2022-10-18T04:31:38;7.38;;;2.65;;
75651;SDS011;64248;43.602;39.724;2022-10-18T04:34:04;6.07;;;3.45;;
75651;SDS011;64248;43.602;39.724;2022-10-18T04:36:30;6.53;;;2.92;;
75651;SDS011;64248;43.602;39.724;2022-10-18T04:38:56;6.80;;;2.58;;
75651;SDS011;64248;43.602;39.724;2022-10-18T04:41:22;7.72;;;3.75;;
75651;SDS011;64248;43.602;39.724;2022-10-18T04:43:48;6.38;;;2.67;;
75651;SDS011;64248;43.602;39.724;2022-10-18T04:46:14;7.65;;;3.03;;
75651;SDS011;64248;43.602;39.724;2022-10-18T04:48:40;8.40;;;2.47;;
75651;SDS011;64248;43.602;39.724;2022-10-18T04:51:06;7.65;;;3.00;;
75651;SDS011;64248;43.602;39.724;2022-10-18T04:53:32;6.55;;;3.13;;
75651;SDS011;64248;43.602;39.724;2022-10-18T04:55:57;8.15;;;3.65;;
75651;SDS011;64248;43.602;39.724;2022-10-18T04:58:24;6.60;;;2.65;;
75651;SDS011;64248;43.602;39.724;2022-10-18T05:00:50;8.15;;;3.45;;
75651;SDS011;64248;43.602;39.724;2022-10-18T05:03:16;6.78;;;3.30;;
75651;SDS011;64248;43.602;39.724;2022-10-18T05:05:42;7.53;;;3.33;;
75651;SDS011;64248;43.602;39.724;2022-10-18T05:08:10;6.55;;;3.05;;
75651;SDS011;64248;43.602;39.724;2022-10-18T05:10:37;5.72;;;2.58;;
75651;SDS011;64248;43.602;39.724;2022-10-18T05:13:03;7.03;;;3.58;;
75651;SDS011;64248;43.602;39.724;2022-10-18T05:15:29;9.68;;;2.65;;
75651;SDS011;64248;43.602;39.724;2022-10-18T05:17:55;7.30;;;3.35;;
75651;SDS011;64248;43.602;39.724;2022-10-18T05:20:21;6.72;;;2.60;;
75651;SDS011;64248;43.602;39.724;2022-10-18T05:22:47;11.15;;;2.85;;
75651;SDS011;64248;43.602;39.724;2022-10-18T05:25:13;7.43;;;3.15;;
75651;SDS011;64248;43.602;39.724;2022-10-18T05:27:39;7.72;;;2.90;;
75651;SDS011;64248;43.602;39.724;2022-10-18T05:30:05;6.60;;;3.13;;
75651;SDS011;64248;43.602;39.724;2022-10-18T05:32:31;7.68;;;3.55;;
75651;SDS011;64248;43.602;39.724;2022-10-18T05:35:00;9.18;;;3.05;;
75651;SDS011;64248;43.602;39.724;2022-10-18T05:37:26;7.07;;;3.28;;
75651;SDS011;64248;43.602;39.724;2022-10-18T05:39:52;8.02;;;3.30;;
75651;SDS011;64248;43.602;39.724;2022-10-18T05:42:18;7.40;;;3.78;;
75651;SDS011;64248;43.602;39.724;2022-10-18T05:44:44;6.88;;;2.67;;
75651;SDS011;64248;43.602;39.724;2022-10-18T05:47:10;9.27;;;3.60;;
75651;SDS011;64248;43.602;39.724;2022-10-18T05:49:36;8.57;;;3.75;;
75651;SDS011;64248;43.602;39.724;2022-10-18T05:52:02;5.15;;;2.60;;
75651;SDS011;64248;43.602;39.724;2022-10-18T05:54:28;7.03;;;3.20;;
75651;SDS011;64248;43.602;39.724;2022-10-18T05:56:55;5.38;;;2.38;;
75651;SDS011;64248;43.602;39.724;2022-10-18T05:59:21;10.00;;;4.60;;
75651;SDS011;64248;43.602;39.724;2022-10-18T06:01:47;7.13;;;3.00;;
75651;SDS011;64248;43.602;39.724;2022-10-18T06:04:13;8.88;;;2.90;;
75651;SDS011;64248;43.602;39.724;2022-10-18T06:06:39;5.65;;;3.45;;
75651;SDS011;64248;43.602;39.724;2022-10-18T06:09:05;5.75;;;2.13;;
75651;SDS011;64248;43.602;39.724;2022-10-18T06:11:32;8.45;;;2.50;;
75651;SDS011;64248;43.602;39.724;2022-10-18T06:13:59;5.15;;;2.40;;
75651;SDS011;64248;43.602;39.724;2022-10-18T06:16:26;6.78;;;2.88;;
75651;SDS011;64248;43.602;39.724;2022-10-18T06:18:53;7.28;;;3.75;;
75651;SDS011;64248;43.602;39.724;2022-10-18T06:21:20;7.38;;;2.45;;
75651;SDS011;64248;43.602;39.724;2022-10-18T06:23:48;7.70;;;3.05;;
75651;SDS011;64248;43.602;39.724;2022-10-18T06:26:18;5.40;;;2.45;;
75651;SDS011;64248;43.602;39.724;2022-10-18T06:28:44;7.82;;;3.13;;
75651;SDS011;64248;43.602;39.724;2022-10-18T06:31:10;6.07;;;3.13;;
75651;SDS011;64248;43.602;39.724;2022-10-18T06:33:37;13.20;;;3.22;;
75651;SDS011;64248;43.602;39.724;2022-10-18T06:36:05;7.88;;;3.25;;
75651;SDS011;64248;43.602;39.724;2022-10-18T06:38:35;15.32;;;3.63;;
75651;SDS011;64248;43.602;39.724;2022-10-18T06:41:02;11.18;;;4.78;;
75651;SDS011;64248;43.602;39.724;2022-10-18T06:43:29;33.28;;;17.02;;
75651;SDS011;64248;43.602;39.724;2022-10-18T06:45:55;16.40;;;5.13;;
75651;SDS011;64248;43.602;39.724;2022-10-18T06:48:21;16.65;;;6.78;;
75651;SDS011;64248;43.602;39.724;2022-10-18T06:50:54;14.68;;;6.13;;
75651;SDS011;64248;43.602;39.724;2022-10-18T06:53:25;12.10;;;5.10;;
75651;SDS011;64248;43.602;39.724;2022-10-18T06:56:02;12.85;;;5.68;;
75651;SDS011;64248;43.602;39.724;2022-10-18T06:58:30;15.38;;;6.00;;
75651;SDS011;64248;43.602;39.724;2022-10-18T07:00:56;16.80;;;4.72;;
75651;SDS011;64248;43.602;39.724;2022-10-18T07:03:22;8.27;;;4.13;;
75651;SDS011;64248;43.602;39.724;2022-10-18T07:05:50;18.23;;;4.57;;
75651;SDS011;64248;43.602;39.724;2022-10-18T07:08:16;13.25;;;4.10;;
75651;SDS011;64248;43.602;39.724;2022-10-18T07:10:49;13.40;;;4.95;;
75651;SDS011;64248;43.602;39.724;2022-10-18T07:13:16;10.57;;;3.60;;
75651;SDS011;64248;43.602;39.724;2022-10-18T07:15:42;9.88;;;3.65;;
75651;SDS011;64248;43.602;39.724;2022-10-18T07:18:10;10.32;;;3.90;;
75651;SDS011;64248;43.602;39.724;2022-10-18T07:20:36;9.15;;;3.88;;
75651;SDS011;64248;43.602;39.724;2022-10-18T07:23:01;8.45;;;4.13;;
75651;SDS011;64248;43.602;39.724;2022-10-18T07:25:28;8.05;;;3.75;;
75651;SDS011;64248;43.602;39.724;2022-10-18T07:27:55;7.95;;;3.92;;
75651;SDS011;64248;43.602;39.724;2022-10-18T07:30:21;9.63;;;4.25;;
75651;SDS011;64248;43.602;39.724;2022-10-18T07:32:47;7.63;;;3.60;;
75651;SDS011;64248;43.602;39.724;2022-10-18T07:35:16;6.63;;;3.72;;
75651;SDS011;64248;43.602;39.724;2022-10-18T07:37:42;7.50;;;3.67;;
75651;SDS011;64248;43.602;39.724;2022-10-18T07:40:08;7.97;;;4.03;;
75651;SDS011;64248;43.602;39.724;2022-10-18T07:42:36;7.80;;;3.90;;
75651;SDS011;64248;43.602;39.724;2022-10-18T07:45:03;7.30;;;3.95;;
75651;SDS011;64248;43.602;39.724;2022-10-18T07:47:29;8.35;;;3.90;;
75651;SDS011;64248;43.602;39.724;2022-10-18T07:49:55;9.68;;;4.85;;
75651;SDS011;64248;43.602;39.724;2022-10-18T07:52:21;7.82;;;3.95;;
75651;SDS011;64248;43.602;39.724;2022-10-18T07:54:47;6.75;;;3.67;;
75651;SDS011;64248;43.602;39.724;2022-10-18T07:57:13;6.45;;;3.00;;
75651;SDS011;64248;43.602;39.724;2022-10-18T07:59:39;7.82;;;4.25;;
75651;SDS011;64248;43.602;39.724;2022-10-18T08:02:05;6.97;;;4.00;;
75651;SDS011;64248;43.602;39.724;2022-10-18T08:04:31;5.80;;;3.40;;
75651;SDS011;64248;43.602;39.724;2022-10-18T08:06:57;8.82;;;4.22;;
75651;SDS011;64248;43.602;39.724;2022-10-18T08:09:22;8.23;;;3.60;;
75651;SDS011;64248;43.602;39.724;2022-10-18T08:11:48;7.97;;;3.63;;
75651;SDS011;64248;43.602;39.724;2022-10-18T08:14:14;6.55;;;3.38;;
75651;SDS011;64248;43.602;39.724;2022-10-18T08:16:40;9.27;;;3.50;;
75651;SDS011;64248;43.602;39.724;2022-10-18T08:19:06;6.93;;;3.28;;
75651;SDS011;64248;43.602;39.724;2022-10-18T08:21:32;5.45;;;3.20;;
75651;SDS011;64248;43.602;39.724;2022-10-18T08:23:58;6.47;;;3.67;;
75651;SDS011;64248;43.602;39.724;2022-10-18T08:26:24;8.07;;;3.75;;
75651;SDS011;64248;43.602;39.724;2022-10-18T08:28:50;6.97;;;4.15;;
75651;SDS011;64248;43.602;39.724;2022-10-18T08:31:17;6.90;;;4.10;;
75651;SDS011;64248;43.602;39.724;2022-10-18T08:33:44;7.22;;;4.28;;
75651;SDS011;64248;43.602;39.724;2022-10-18T08:36:12;7.05;;;3.45;;
75651;SDS011;64248;43.602;39.724;2022-10-18T08:38:40;6.85;;;3.45;;
75651;SDS011;64248;43.602;39.724;2022-10-18T08:41:27;5.50;;;3.67;;
75651;SDS011;64248;43.602;39.724;2022-10-18T08:44:06;4.70;;;2.92;;
75651;SDS011;64248;43.602;39.724;2022-10-18T08:46:45;4.30;;;2.75;;
75651;SDS011;64248;43.602;39.724;2022-10-18T08:52:05;7.00;;;3.25;;
75651;SDS011;64248;43.602;39.724;2022-10-18T08:55:05;5.03;;;3.03;;
75651;SDS011;64248;43.602;39.724;2022-10-18T08:57:34;5.72;;;3.00;;
75651;SDS011;64248;43.602;39.724;2022-10-18T09:00:02;4.18;;;2.80;;
75651;SDS011;64248;43.602;39.724;2022-10-18T09:03:02;4.18;;;2.67;;
75651;SDS011;64248;43.602;39.724;2022-10-18T09:08:22;4.03;;;2.70;;
75651;SDS011;64248;43.602;39.724;2022-10-18T09:11:11;5.93;;;3.45;;
75651;SDS011;64248;43.602;39.724;2022-10-18T09:17:01;4.55;;;2.78;;
75651;SDS011;64248;43.602;39.724;2022-10-18T09:19:19;3.92;;;2.40;;
75651;SDS011;64248;43.602;39.724;2022-10-18T09:22:16;5.20;;;3.00;;
75651;SDS011;64248;43.602;39.724;2022-10-18T09:24:45;5.95;;;2.47;;
75651;SDS011;64248;43.602;39.724;2022-10-18T09:27:40;4.82;;;2.70;;
75651;SDS011;64248;43.602;39.724;2022-10-18T09:30:15;6.20;;;2.78;;
75651;SDS011;64248;43.602;39.724;2022-10-18T09:36:01;6.70;;;2.88;;
75651;SDS011;64248;43.602;39.724;2022-10-18T09:38:41;4.47;;;2.97;;
75651;SDS011;64248;43.602;39.724;2022-10-18T09:41:15;4.70;;;2.75;;
75651;SDS011;64248;43.602;39.724;2022-10-18T09:44:22;4.47;;;3.10;;
75651;SDS011;64248;43.602;39.724;2022-10-18T09:46:48;3.58;;;2.30;;
75651;SDS011;64248;43.602;39.724;2022-10-18T09:49:28;4.57;;;2.90;;
75651;SDS011;64248;43.602;39.724;2022-10-18T09:51:58;5.90;;;2.97;;
75651;SDS011;64248;43.602;39.724;2022-10-18T09:54:32;7.10;;;2.92;;
75651;SDS011;64248;43.602;39.724;2022-10-18T09:57:03;3.92;;;2.47;;
75651;SDS011;64248;43.602;39.724;2022-10-18T10:02:03;5.15;;;3.20;;
75651;SDS011;64248;43.602;39.724;2022-10-18T10:04:30;5.70;;;3.38;;
75651;SDS011;64248;43.602;39.724;2022-10-18T10:06:58;6.63;;;3.10;;
75651;SDS011;64248;43.602;39.724;2022-10-18T10:09:26;4.10;;;2.50;;
75651;SDS011;64248;43.602;39.724;2022-10-18T10:11:55;4.95;;;2.90;;
75651;SDS011;64248;43.602;39.724;2022-10-18T10:14:26;4.60;;;2.72;;
75651;SDS011;64248;43.602;39.724;2022-10-18T10:16:55;5.70;;;3.33;;
75651;SDS011;64248;43.602;39.724;2022-10-18T10:21:56;5.50;;;3.08;;
75651;SDS011;64248;43.602;39.724;2022-10-18T10:24:45;4.35;;;3.08;;
75651;SDS011;64248;43.602;39.724;2022-10-18T10:27:18;5.70;;;3.42;;
75651;SDS011;64248;43.602;39.724;2022-10-18T10:29:53;5.13;;;3.17;;
75651;SDS011;64248;43.602;39.724;2022-10-18T10:32:22;6.22;;;4.47;;
75651;SDS011;64248;43.602;39.724;2022-10-18T10:34:50;4.20;;;2.83;;
75651;SDS011;64248;43.602;39.724;2022-10-18T10:37:24;6.50;;;3.15;;
75651;SDS011;64248;43.602;39.724;2022-10-18T10:42:36;5.75;;;3.70;;
75651;SDS011;64248;43.602;39.724;2022-10-18T10:45:13;6.70;;;3.33;;
75651;SDS011;64248;43.602;39.724;2022-10-18T10:47:39;3.78;;;2.40;;
75651;SDS011;64248;43.602;39.724;2022-10-18T10:50:09;4.47;;;2.63;;
75651;SDS011;64248;43.602;39.724;2022-10-18T10:52:37;5.07;;;2.90;;
75651;SDS011;64248;43.602;39.724;2022-10-18T10:55:05;5.20;;;2.90;;
75651;SDS011;64248;43.602;39.724;2022-10-18T10:57:45;5.25;;;3.35;;
75651;SDS011;64248;43.602;39.724;2022-10-18T11:03:31;5.13;;;2.80;;
75651;SDS011;64248;43.602;39.724;2022-10-18T11:05:52;6.22;;;3.05;;
75651;SDS011;64248;43.602;39.724;2022-10-18T11:08:26;9.75;;;5.55;;
75651;SDS011;64248;43.602;39.724;2022-10-18T11:11:01;9.45;;;4.97;;
75651;SDS011;64248;43.602;39.724;2022-10-18T11:13:45;5.53;;;2.80;;
75651;SDS011;64248;43.602;39.724;2022-10-18T11:16:18;6.10;;;3.78;;
75651;SDS011;64248;43.602;39.724;2022-10-18T11:19:09;4.97;;;3.35;;
75651;SDS011;64248;43.602;39.724;2022-10-18T11:21:45;4.25;;;2.63;;
75651;SDS011;64248;43.602;39.724;2022-10-18T11:24:12;5.65;;;2.83;;
75651;SDS011;64248;43.602;39.724;2022-10-18T11:26:43;5.03;;;3.00;;
75651;SDS011;64248;43.602;39.724;2022-10-18T11:32:12;10.38;;;5.32;;
75651;SDS011;64248;43.602;39.724;2022-10-18T11:37:56;5.90;;;2.30;;
75651;SDS011;64248;43.602;39.724;2022-10-18T11:46:20;6.10;;;3.45;;
75651;SDS011;64248;43.602;39.724;2022-10-18T11:57:56;5.30;;;2.92;;
75651;SDS011;64248;43.602;39.724;2022-10-18T12:05:51;5.32;;;3.15;;
75651;SDS011;64248;43.602;39.724;2022-10-18T12:08:22;5.88;;;2.85;;
75651;SDS011;64248;43.602;39.724;2022-10-18T12:10:56;4.70;;;2.95;;
75651;SDS011;64248;43.602;39.724;2022-10-18T12:13:33;6.47;;;2.63;;
75651;SDS011;64248;43.602;39.724;2022-10-18T12:16:05;6.35;;;3.05;;
75651;SDS011;64248;43.602;39.724;2022-10-18T12:18:34;5.60;;;2.92;;
75651;SDS011;64248;43.602;39.724;2022-10-18T12:21:07;4.43;;;2.45;;
75651;SDS011;64248;43.602;39.724;2022-10-18T12:23:53;5.28;;;2.78;;
75651;SDS011;64248;43.602;39.724;2022-10-18T12:26:24;5.13;;;3.13;;
75651;SDS011;64248;43.602;39.724;2022-10-18T12:31:37;5.47;;;2.97;;
75651;SDS011;64248;43.602;39.724;2022-10-18T12:39:32;7.60;;;3.55;;
75651;SDS011;64248;43.602;39.724;2022-10-18T12:42:27;5.85;;;3.08;;
75651;SDS011;64248;43.602;39.724;2022-10-18T12:47:42;5.00;;;3.10;;
75651;SDS011;64248;43.602;39.724;2022-10-18T12:50:30;6.68;;;4.03;;
75651;SDS011;64248;43.602;39.724;2022-10-18T12:53:04;6.32;;;3.45;;
75651;SDS011;64248;43.602;39.724;2022-10-18T12:55:34;5.35;;;3.88;;
75651;SDS011;64248;43.602;39.724;2022-10-18T13:11:37;9.63;;;3.60;;
75651;SDS011;64248;43.602;39.724;2022-10-18T13:14:20;6.43;;;4.55;;
75651;SDS011;64248;43.602;39.724;2022-10-18T13:24:44;5.95;;;3.40;;
75651;SDS011;64248;43.602;39.724;2022-10-18T13:30:37;5.95;;;3.45;;
75651;SDS011;64248;43.602;39.724;2022-10-18T13:41:01;7.25;;;3.47;;
75651;SDS011;64248;43.602;39.724;2022-10-18T14:00:29;7.40;;;4.07;;
75651;SDS011;64248;43.602;39.724;2022-10-18T14:08:39;8.90;;;4.38;;
75651;SDS011;64248;43.602;39.724;2022-10-18T14:11:11;5.47;;;3.40;;
75651;SDS011;64248;43.602;39.724;2022-10-18T14:14:07;6.50;;;3.80;;
75651;SDS011;64248;43.602;39.724;2022-10-18T14:22:19;6.28;;;3.45;;
75651;SDS011;64248;43.602;39.724;2022-10-18T14:24:50;9.23;;;4.28;;
75651;SDS011;64248;43.602;39.724;2022-10-18T14:27:22;8.10;;;4.38;;
75651;SDS011;64248;43.602;39.724;2022-10-18T14:29:49;7.38;;;3.97;;
75651;SDS011;64248;43.602;39.724;2022-10-18T14:32:51;8.18;;;3.47;;
75651;SDS011;64248;43.602;39.724;2022-10-18T14:35:24;8.02;;;5.47;;
75651;SDS011;64248;43.602;39.724;2022-10-18T14:37:52;8.45;;;4.70;;
75651;SDS011;64248;43.602;39.724;2022-10-18T14:42:54;9.75;;;6.05;;
75651;SDS011;64248;43.602;39.724;2022-10-18T14:45:20;11.32;;;5.28;;
75651;SDS011;64248;43.602;39.724;2022-10-18T14:47:48;9.63;;;5.60;;
75651;SDS011;64248;43.602;39.724;2022-10-18T14:50:24;9.95;;;5.50;;
75651;SDS011;64248;43.602;39.724;2022-10-18T14:52:54;11.18;;;6.07;;
75651;SDS011;64248;43.602;39.724;2022-10-18T14:55:22;7.97;;;5.00;;
75651;SDS011;64248;43.602;39.724;2022-10-18T14:57:51;7.47;;;4.25;;
75651;SDS011;64248;43.602;39.724;2022-10-18T15:00:22;10.40;;;5.28;;
75651;SDS011;64248;43.602;39.724;2022-10-18T15:03:02;10.07;;;5.50;;
75651;SDS011;64248;43.602;39.724;2022-10-18T15:05:30;10.55;;;5.50;;
75651;SDS011;64248;43.602;39.724;2022-10-18T15:07:56;10.93;;;5.30;;
75651;SDS011;64248;43.602;39.724;2022-10-18T15:10:25;11.18;;;5.72;;
75651;SDS011;64248;43.602;39.724;2022-10-18T15:12:53;11.13;;;6.25;;
75651;SDS011;64248;43.602;39.724;2022-10-18T15:15:26;8.65;;;5.53;;
75651;SDS011;64248;43.602;39.724;2022-10-18T15:17:54;10.65;;;5.30;;
75651;SDS011;64248;43.602;39.724;2022-10-18T15:22:52;10.75;;;6.85;;
75651;SDS011;64248;43.602;39.724;2022-10-18T15:25:25;10.23;;;7.22;;
75651;SDS011;64248;43.602;39.724;2022-10-18T15:27:58;12.20;;;6.47;;
75651;SDS011;64248;43.602;39.724;2022-10-18T15:33:00;12.27;;;6.45;;
75651;SDS011;64248;43.602;39.724;2022-10-18T15:35:32;16.10;;;6.07;;
75651;SDS011;64248;43.602;39.724;2022-10-18T15:38:00;19.08;;;7.80;;
75651;SDS011;64248;43.602;39.724;2022-10-18T15:40:47;17.75;;;8.25;;
75651;SDS011;64248;43.602;39.724;2022-10-18T15:44:04;17.92;;;9.80;;
75651;SDS011;64248;43.602;39.724;2022-10-18T15:48:37;20.65;;;8.35;;
75651;SDS011;64248;43.602;39.724;2022-10-18T15:54:16;19.45;;;8.05;;
75651;SDS011;64248;43.602;39.724;2022-10-18T15:56:43;20.42;;;9.73;;
75651;SDS011;64248;43.602;39.724;2022-10-18T15:59:20;20.65;;;9.43;;
75651;SDS011;64248;43.602;39.724;2022-10-18T16:01:55;17.35;;;8.77;;
75651;SDS011;64248;43.602;39.724;2022-10-18T16:04:25;18.55;;;10.18;;
75651;SDS011;64248;43.602;39.724;2022-10-18T16:06:54;16.30;;;8.50;;
75651;SDS011;64248;43.602;39.724;2022-10-18T16:09:21;21.50;;;10.32;;
75651;SDS011;64248;43.602;39.724;2022-10-18T16:11:49;20.15;;;9.23;;
75651;SDS011;64248;43.602;39.724;2022-10-18T16:14:16;19.98;;;8.52;;
75651;SDS011;64248;43.602;39.724;2022-10-18T16:16:43;21.00;;;9.27;;
75651;SDS011;64248;43.602;39.724;2022-10-18T16:19:13;17.25;;;9.52;;
75651;SDS011;64248;43.602;39.724;2022-10-18T16:21:43;15.95;;;8.65;;
75651;SDS011;64248;43.602;39.724;2022-10-18T16:24:09;17.98;;;8.98;;
75651;SDS011;64248;43.602;39.724;2022-10-18T16:26:35;15.35;;;9.27;;
75651;SDS011;64248;43.602;39.724;2022-10-18T16:29:02;19.85;;;9.50;;
75651;SDS011;64248;43.602;39.724;2022-10-18T16:31:30;19.65;;;8.77;;
75651;SDS011;64248;43.602;39.724;2022-10-18T16:33:58;24.15;;;11.98;;
75651;SDS011;64248;43.602;39.724;2022-10-18T16:36:28;20.15;;;11.57;;
75651;SDS011;64248;43.602;39.724;2022-10-18T16:38:56;23.65;;;12.60;;
75651;SDS011;64248;43.602;39.724;2022-10-18T16:41:25;17.23;;;10.35;;
75651;SDS011;64248;43.602;39.724;2022-10-18T16:43:51;18.92;;;10.63;;
75651;SDS011;64248;43.602;39.724;2022-10-18T16:48:48;15.77;;;8.65;;
75651;SDS011;64248;43.602;39.724;2022-10-18T16:51:15;15.55;;;8.57;;
75651;SDS011;64248;43.602;39.724;2022-10-18T16:53:41;14.35;;;9.23;;
75651;SDS011;64248;43.602;39.724;2022-10-18T16:56:24;13.65;;;8.48;;
75651;SDS011;64248;43.602;39.724;2022-10-18T16:58:55;19.05;;;9.00;;
75651;SDS011;64248;43.602;39.724;2022-10-18T17:01:21;18.75;;;8.30;;
75651;SDS011;64248;43.602;39.724;2022-10-18T17:03:49;13.85;;;8.38;;
75651;SDS011;64248;43.602;39.724;2022-10-18T17:06:25;14.40;;;7.18;;
75651;SDS011;64248;43.602;39.724;2022-10-18T17:08:54;20.23;;;12.00;;
75651;SDS011;64248;43.602;39.724;2022-10-18T17:11:21;18.52;;;8.93;;
75651;SDS011;64248;43.602;39.724;2022-10-18T17:13:49;18.77;;;8.05;;
75651;SDS011;64248;43.602;39.724;2022-10-18T17:18:53;13.70;;;7.70;;
75651;SDS011;64248;43.602;39.724;2022-10-18T17:21:20;14.98;;;7.10;;
75651;SDS011;64248;43.602;39.724;2022-10-18T17:23:46;14.80;;;8.98;;
75651;SDS011;64248;43.602;39.724;2022-10-18T17:26:14;19.38;;;8.90;;